Time;durP1;ratioP1;P1;durP2;ratioP2;P2;SDS_P1;SDS_P2;PMS_P1;PMS_P2;Temp;Humidity;BMP_temperature;BMP_pressure;BME280_temperature;BME280_humidity;BME280_pressure;Samples;Min_cycle;Max_cycle;Signal;HPM_P1;HPM_P2
2023/01/13 00:02:20;;;;;;;;;;;17.40;89.90;;;;;;5022407;28;19953;-79
2023/01/13 00:04:45;;;;;;;;;;;17.40;90.10;;;;;;5039011;28;19964;-79
2023/01/13 00:07:11;;;;;;;;;;;17.30;90.30;;;;;;5022444;28;20015;-79
2023/01/13 00:09:39;;;;;;;;;;;17.30;90.80;;;;;;5039586;28;19917;-79
2023/01/13 00:12:05;;;;;;;;;;;17.20;90.70;;;;;;5022644;28;19916;-79
2023/01/13 00:14:34;;;;;;;;;;;17.10;90.80;;;;;;5022354;28;19996;-79
2023/01/13 00:17:01;;;;;;;;;;;17.10;91.00;;;;;;5039490;28;19921;-79
2023/01/13 00:19:36;;;;;;;;;;;17.10;91.20;;;;;;5022790;28;19920;-79
2023/01/13 00:22:01;;;;;;;;;;;17.00;91.30;;;;;;5039839;28;20369;-79
2023/01/13 00:24:27;;;;;;;;;;;17.00;91.50;;;;;;5022563;28;20051;-79
2023/01/13 00:26:52;;;;;;;;;;;16.90;91.70;;;;;;5022099;28;19962;-79
2023/01/13 00:29:27;;;;;;;;;;;16.90;91.80;;;;;;5022222;28;20007;-79
2023/01/13 00:31:54;;;;;;;;;;;16.90;91.90;;;;;;5020816;28;20018;-79
2023/01/13 00:34:19;;;;;;;;;;;16.90;92.10;;;;;;5021326;28;19971;-79
2023/01/13 00:36:45;;;;;;;;;;;16.80;92.20;;;;;;5021279;28;20313;-79
2023/01/13 00:39:12;;;;;;;;;;;16.80;92.40;;;;;;5021773;28;19908;-79
2023/01/13 00:44:22;;;;;;;;;;;16.70;92.60;;;;;;5039237;28;19924;-79
2023/01/13 00:46:59;;;;;;;;;;;16.70;92.80;;;;;;5021749;28;19909;-78
2023/01/13 00:49:25;;;;;;;;;;;16.60;92.90;;;;;;5020777;28;19910;-78
2023/01/13 00:51:51;;;;;;;;;;;16.60;93.10;;;;;;5021644;28;19913;-78
2023/01/13 00:54:17;;;;;;;;;;;16.60;93.20;;;;;;5037753;28;19921;-78
2023/01/13 00:56:43;;;;;;;;;;;16.50;93.30;;;;;;5021091;28;19908;-78
2023/01/13 00:59:12;;;;;;;;;;;16.50;93.40;;;;;;5020840;28;19920;-78
2023/01/13 01:01:39;;;;;;;;;;;16.50;93.50;;;;;;5020967;28;19968;-79
2023/01/13 01:04:05;;;;;;;;;;;16.50;93.60;;;;;;5020124;28;19953;-78
2023/01/13 01:06:31;;;;;;;;;;;16.40;93.70;;;;;;5036798;28;19948;-78
2023/01/13 01:08:57;;;;;;;;;;;16.40;93.80;;;;;;5020180;28;19909;-78
2023/01/13 01:11:27;;;;;;;;;;;16.40;93.90;;;;;;5020241;28;20234;-78
2023/01/13 01:13:54;;;;;;;;;;;16.30;94.00;;;;;;5037261;28;19909;-78
2023/01/13 01:16:20;;;;;;;;;;;16.30;94.10;;;;;;5019795;28;19909;-78
2023/01/13 01:18:47;;;;;;;;;;;16.30;94.20;;;;;;5020448;28;19910;-79
2023/01/13 01:21:16;;;;;;;;;;;16.30;94.30;;;;;;5019955;28;19909;-78
2023/01/13 01:23:42;;;;;;;;;;;16.30;94.40;;;;;;5037375;28;20003;-78
2023/01/13 01:26:10;;;;;;;;;;;16.20;94.40;;;;;;5020481;28;20001;-78
2023/01/13 01:28:36;;;;;;;;;;;16.20;94.50;;;;;;5037772;28;20007;-78
2023/01/13 01:31:13;;;;;;;;;;;16.20;94.60;;;;;;5020399;28;20000;-78
2023/01/13 01:33:39;;;;;;;;;;;16.20;94.70;;;;;;5020507;28;19983;-78
2023/01/13 01:36:05;;;;;;;;;;;16.10;94.80;;;;;;5020394;28;19909;-79
2023/01/13 01:38:31;;;;;;;;;;;16.10;94.80;;;;;;5020140;28;19910;-78
2023/01/13 01:41:06;;;;;;;;;;;16.10;94.90;;;;;;5020246;28;19920;-78
2023/01/13 01:44:01;;;;;;;;;;;16.10;95.00;;;;;;5038400;28;20168;-79
2023/01/13 01:46:27;;;;;;;;;;;16.10;95.10;;;;;;5024162;28;20175;-78
2023/01/13 01:48:55;;;;;;;;;;;16.10;95.10;;;;;;5024067;28;19909;-78
2023/01/13 01:51:21;;;;;;;;;;;16.10;95.20;;;;;;5041009;28;20284;-79
2023/01/13 01:53:46;;;;;;;;;;;16.00;95.20;;;;;;5024022;28;19935;-78
2023/01/13 01:56:14;;;;;;;;;;;16.00;95.30;;;;;;5024216;28;19939;-78
2023/01/13 01:58:44;;;;;;;;;;;16.00;95.30;;;;;;5024162;28;19909;-78
2023/01/13 02:01:10;;;;;;;;;;;16.00;95.40;;;;;;5024365;28;19909;-78
2023/01/13 02:03:38;;;;;;;;;;;15.90;95.50;;;;;;5040996;28;20279;-78
2023/01/13 02:06:17;;;;;;;;;;;15.90;95.50;;;;;;5024178;28;20186;-78
2023/01/13 02:08:43;;;;;;;;;;;15.90;95.50;;;;;;5023760;28;19909;-78
2023/01/13 02:12:28;;;;;;;;;;;15.90;95.70;;;;;;5024220;28;19932;-78
2023/01/13 02:14:18;;;;;;;;;;;15.90;95.70;;;;;;5041262;28;19909;-79
2023/01/13 02:16:48;;;;;;;;;;;15.90;95.70;;;;;;5024243;28;19914;-78
2023/01/13 02:19:32;;;;;;;;;;;15.90;95.80;;;;;;5041234;28;19967;-78
2023/01/13 02:22:00;;;;;;;;;;;15.80;95.80;;;;;;5023269;28;20332;-77
2023/01/13 02:24:53;;;;;;;;;;;15.80;95.90;;;;;;5022087;28;19913;-78
2023/01/13 02:27:22;;;;;;;;;;;15.80;95.90;;;;;;5023006;28;20161;-78
2023/01/13 02:33:06;;;;;;;;;;;15.80;96.10;;;;;;5053949;28;19978;-78
2023/01/13 02:35:38;;;;;;;;;;;15.80;96.10;;;;;;5060718;28;20262;-78
2023/01/13 02:38:04;;;;;;;;;;;15.70;96.20;;;;;;5043514;28;19916;-78
2023/01/13 02:40:36;;;;;;;;;;;15.70;96.20;;;;;;5043615;28;20282;-78
2023/01/13 02:46:01;;;;;;;;;;;15.70;96.30;;;;;;5060452;28;20031;-78
2023/01/13 02:48:28;;;;;;;;;;;15.70;96.30;;;;;;5043658;28;19999;-78
2023/01/13 02:51:04;;;;;;;;;;;15.70;96.40;;;;;;5041938;28;19913;-78
2023/01/13 02:53:35;;;;;;;;;;;15.70;96.40;;;;;;5059032;28;19909;-78
2023/01/13 02:56:03;;;;;;;;;;;15.60;96.50;;;;;;5041844;28;19915;-78
2023/01/13 02:58:30;;;;;;;;;;;15.60;96.50;;;;;;5042764;28;19919;-78
2023/01/13 03:00:56;;;;;;;;;;;15.60;96.50;;;;;;5042933;28;19909;-78
2023/01/13 03:03:21;;;;;;;;;;;15.60;96.60;;;;;;5059906;28;19962;-79
2023/01/13 03:06:00;;;;;;;;;;;15.60;96.60;;;;;;5060053;28;20354;-78
2023/01/13 03:08:29;;;;;;;;;;;15.60;96.70;;;;;;5043305;28;19913;-78
2023/01/13 03:11:17;;;;;;;;;;;15.50;96.60;;;;;;5042827;28;19913;-79
2023/01/13 03:14:01;;;;;;;;;;;15.50;96.70;;;;;;5042820;28;20188;-78
2023/01/13 03:16:45;;;;;;;;;;;15.50;96.70;;;;;;5042365;28;19991;-78
2023/01/13 03:19:29;;;;;;;;;;;15.50;96.70;;;;;;5042747;28;19943;-78
2023/01/13 03:22:16;;;;;;;;;;;15.40;96.70;;;;;;5042630;28;20023;-78
2023/01/13 03:24:45;;;;;;;;;;;15.40;96.80;;;;;;5059461;28;19923;-78
2023/01/13 03:27:17;;;;;;;;;;;15.40;96.80;;;;;;5042629;28;19931;-78
2023/01/13 03:29:45;;;;;;;;;;;15.40;96.80;;;;;;5043130;28;19909;-78
2023/01/13 03:32:16;;;;;;;;;;;15.40;96.90;;;;;;5059659;28;20011;-78
2023/01/13 03:34:44;;;;;;;;;;;15.40;96.90;;;;;;5024400;28;19917;-78
2023/01/13 03:37:11;;;;;;;;;;;15.40;96.90;;;;;;5039807;28;19909;-78
2023/01/13 03:39:40;;;;;;;;;;;15.30;96.90;;;;;;5022654;28;20221;-78
2023/01/13 03:42:08;;;;;;;;;;;15.30;97.00;;;;;;5022317;28;19909;-78
2023/01/13 03:44:36;;;;;;;;;;;15.30;97.00;;;;;;5040305;28;19913;-78
2023/01/13 03:47:02;;;;;;;;;;;15.20;97.00;;;;;;5022148;28;19909;-78
2023/01/13 03:49:47;;;;;;;;;;;15.30;97.00;;;;;;5022719;28;19913;-78
2023/01/13 03:52:29;;;;;;;;;;;15.20;97.00;;;;;;5022501;28;19909;-78
2023/01/13 03:54:59;;;;;;;;;;;15.20;97.00;;;;;;5022507;28;19909;-78
2023/01/13 03:57:27;;;;;;;;;;;15.20;97.10;;;;;;5021546;28;19909;-77
2023/01/13 03:59:54;;;;;;;;;;;15.20;97.10;;;;;;5021710;28;19909;-78
2023/01/13 04:02:48;;;;;;;;;;;15.20;97.10;;;;;;5038890;28;19916;-78
2023/01/13 04:05:14;;;;;;;;;;;15.10;97.10;;;;;;5019058;28;19913;-78
2023/01/13 04:07:51;;;;;;;;;;;15.10;97.10;;;;;;5037996;28;19915;-78
2023/01/13 04:10:26;;;;;;;;;;;15.10;97.10;;;;;;5038925;28;19909;-78
2023/01/13 04:13:01;;;;;;;;;;;15.10;97.20;;;;;;5022139;28;19992;-78
2023/01/13 04:15:34;;;;;;;;;;;15.10;97.20;;;;;;5022088;28;20429;-78
2023/01/13 04:18:01;;;;;;;;;;;15.10;97.20;;;;;;5022205;28;19977;-78
2023/01/13 04:20:27;;;;;;;;;;;15.00;97.20;;;;;;5021631;28;20198;-78
2023/01/13 04:22:52;;;;;;;;;;;15.00;97.20;;;;;;5021222;28;20279;-78
2023/01/13 04:25:20;;;;;;;;;;;15.00;97.20;;;;;;5021098;28;19932;-78
2023/01/13 04:27:52;;;;;;;;;;;15.00;97.20;;;;;;5116401;27;19912;-79
2023/01/13 04:30:17;;;;;;;;;;;15.00;97.20;;;;;;5132048;27;20011;-78
2023/01/13 04:32:43;;;;;;;;;;;14.90;97.20;;;;;;5115836;28;19926;-79
2023/01/13 04:35:09;;;;;;;;;;;14.90;97.20;;;;;;5115096;28;19951;-79
2023/01/13 04:37:34;;;;;;;;;;;14.90;97.20;;;;;;5115280;28;19974;-78
2023/01/13 04:40:00;;;;;;;;;;;14.90;97.20;;;;;;5115045;28;20246;-79
2023/01/13 04:42:26;;;;;;;;;;;14.90;97.20;;;;;;5115444;28;20218;-79
2023/01/13 04:44:51;;;;;;;;;;;14.90;97.20;;;;;;5115029;28;20155;-78
2023/01/13 04:47:17;;;;;;;;;;;14.90;97.20;;;;;;5115022;28;19912;-78
2023/01/13 04:49:42;;;;;;;;;;;14.90;97.20;;;;;;5115246;28;19908;-79
2023/01/13 04:52:17;;;;;;;;;;;14.80;97.10;;;;;;5114446;28;19943;-78
2023/01/13 04:54:43;;;;;;;;;;;14.80;97.10;;;;;;5114504;28;20265;-78
2023/01/13 04:57:08;;;;;;;;;;;14.80;97.10;;;;;;5114236;28;19908;-78
2023/01/13 04:59:34;;;;;;;;;;;14.80;97.10;;;;;;5114193;28;19923;-79
2023/01/13 05:02:02;;;;;;;;;;;14.80;97.10;;;;;;5114335;28;19950;-78
2023/01/13 05:04:27;;;;;;;;;;;14.80;97.00;;;;;;5113810;28;19915;-78
2023/01/13 05:06:53;;;;;;;;;;;14.80;97.00;;;;;;5112798;28;19912;-79
2023/01/13 05:09:18;;;;;;;;;;;14.80;97.00;;;;;;5112816;28;19999;-79
2023/01/13 05:17:17;;;;;;;;;;;14.70;96.90;;;;;;5113190;28;19919;-79
2023/01/13 05:19:50;;;;;;;;;;;14.70;96.90;;;;;;5113499;28;19919;-79
2023/01/13 05:27:44;;;;;;;;;;;14.60;96.90;;;;;;5112792;28;19982;-79
2023/01/13 05:30:10;;;;;;;;;;;14.60;96.90;;;;;;5114001;28;19947;-79
2023/01/13 05:32:35;;;;;;;;;;;14.60;96.90;;;;;;5120356;27;19985;-79
2023/01/13 05:35:03;;;;;;;;;;;14.60;96.90;;;;;;5121661;27;19915;-78
2023/01/13 05:37:29;;;;;;;;;;;14.60;96.90;;;;;;5107489;28;19967;-78
2023/01/13 05:45:38;;;;;;;;;;;15.90;93.70;;;;;;5100173;28;19973;-79
2023/01/13 05:48:04;;;;;;;;;;;16.50;91.70;;;;;;5099008;28;20010;-79
2023/01/13 05:50:29;;;;;;;;;;;16.90;90.50;;;;;;5098390;28;20011;-79
2023/01/13 05:52:55;;;;;;;;;;;17.10;89.20;;;;;;5098927;28;19991;-78
2023/01/13 05:55:21;;;;;;;;;;;17.30;87.10;;;;;;5098045;28;19908;-79
2023/01/13 05:57:46;;;;;;;;;;;17.60;85.20;;;;;;5097027;28;19970;-78
2023/01/13 06:00:12;;;;;;;;;;;17.80;83.20;;;;;;5098089;28;19969;-79
2023/01/13 06:02:37;;;;;;;;;;;18.00;81.80;;;;;;5098892;28;19973;-79
2023/01/13 06:05:03;;;;;;;;;;;18.10;80.80;;;;;;5098566;28;19908;-79
2023/01/13 06:07:29;;;;;;;;;;;18.10;80.30;;;;;;5096452;28;20285;-78
2023/01/13 06:09:54;;;;;;;;;;;18.20;79.30;;;;;;5096169;28;19955;-78
2023/01/13 06:12:20;;;;;;;;;;;18.40;78.10;;;;;;5096051;28;19908;-79
2023/01/13 06:14:45;;;;;;;;;;;18.50;77.00;;;;;;5097800;28;20190;-79
2023/01/13 06:17:12;;;;;;;;;;;18.60;76.60;;;;;;5096256;28;19919;-79
2023/01/13 06:19:38;;;;;;;;;;;18.60;76.20;;;;;;5096627;28;20441;-79
2023/01/13 06:22:22;;;;;;;;;;;18.60;76.00;;;;;;5095956;28;19975;-79
2023/01/13 06:24:49;;;;;;;;;;;18.70;75.90;;;;;;5098081;28;19946;-78
2023/01/13 06:27:15;;;;;;;;;;;18.70;75.30;;;;;;5096474;28;19967;-79
2023/01/13 06:29:41;;;;;;;;;;;18.80;74.60;;;;;;5095917;28;20262;-79
2023/01/13 06:32:28;;;;;;;;;;;18.90;74.00;;;;;;5095069;28;19957;-79
2023/01/13 06:34:56;;;;;;;;;;;19.00;73.70;;;;;;5095770;28;19908;-79
2023/01/13 06:37:24;;;;;;;;;;;19.00;73.20;;;;;;5096514;28;19998;-79
2023/01/13 06:39:52;;;;;;;;;;;19.00;72.80;;;;;;5095922;28;19908;-78
2023/01/13 06:45:02;;;;;;;;;;;19.10;72.30;;;;;;5093794;28;20011;-79
2023/01/13 06:47:30;;;;;;;;;;;19.30;71.60;;;;;;5092554;28;20010;-78
2023/01/13 06:49:58;;;;;;;;;;;19.30;71.10;;;;;;5090642;28;19908;-78
2023/01/13 06:52:26;;;;;;;;;;;19.40;70.90;;;;;;5092824;28;19919;-79
2023/01/13 06:54:51;;;;;;;;;;;19.40;70.70;;;;;;5092975;28;19909;-79
2023/01/13 06:57:17;;;;;;;;;;;19.40;70.60;;;;;;5092816;28;19993;-79
2023/01/13 06:59:43;;;;;;;;;;;19.40;70.50;;;;;;5086700;28;19996;-79
2023/01/13 07:02:08;;;;;;;;;;;19.40;70.50;;;;;;5087749;28;19934;-79
2023/01/13 07:04:33;;;;;;;;;;;19.50;70.10;;;;;;5086647;28;20224;-79
2023/01/13 07:06:59;;;;;;;;;;;19.60;69.60;;;;;;5086067;28;19923;-79
2023/01/13 07:09:25;;;;;;;;;;;19.60;69.30;;;;;;5087270;28;20057;-79
2023/01/13 07:11:51;;;;;;;;;;;19.60;69.20;;;;;;5087240;28;19949;-79
2023/01/13 07:17:02;;;;;;;;;;;19.60;69.90;;;;;;5088462;28;20020;-79
2023/01/13 07:19:28;;;;;;;;;;;19.60;70.10;;;;;;5087573;28;20130;-79
2023/01/13 07:21:53;;;;;;;;;;;19.60;70.30;;;;;;5087009;28;20206;-79
2023/01/13 07:24:19;;;;;;;;;;;19.70;70.30;;;;;;5086794;28;19969;-79
2023/01/13 07:26:45;;;;;;;;;;;19.70;70.40;;;;;;5087310;28;19920;-79
2023/01/13 07:29:10;;;;;;;;;;;19.70;70.80;;;;;;5088159;28;20011;-79
2023/01/13 07:31:37;;;;;;;;;;;19.70;71.10;;;;;;5085016;28;19995;-79
2023/01/13 07:34:04;;;;;;;;;;;19.70;71.70;;;;;;5087197;28;20155;-79
2023/01/13 07:36:29;;;;;;;;;;;19.60;72.10;;;;;;5088187;28;19937;-78
2023/01/13 07:38:55;;;;;;;;;;;19.60;72.30;;;;;;5092565;28;19999;-79
2023/01/13 07:44:05;;;;;;;;;;;19.60;72.60;;;;;;5093867;28;19923;-79
2023/01/13 07:46:31;;;;;;;;;;;19.50;72.70;;;;;;5087143;28;19923;-79
2023/01/13 07:48:57;;;;;;;;;;;19.50;73.50;;;;;;5085198;28;20182;-79
2023/01/13 07:51:23;;;;;;;;;;;19.50;73.00;;;;;;5085467;28;19913;-79
2023/01/13 07:53:49;;;;;;;;;;;19.40;73.30;;;;;;5085866;28;20177;-79
2023/01/13 07:56:14;;;;;;;;;;;19.40;73.20;;;;;;5083670;28;19958;-79
2023/01/13 07:58:40;;;;;;;;;;;19.50;73.20;;;;;;5085042;28;20281;-79
2023/01/13 08:01:12;;;;;;;;;;;19.50;73.10;;;;;;5086143;28;20000;-79
2023/01/13 08:03:38;;;;;;;;;;;19.50;72.70;;;;;;5086295;28;19915;-79
2023/01/13 08:06:05;;;;;;;;;;;19.50;72.50;;;;;;5085196;28;19916;-79
2023/01/13 08:08:31;;;;;;;;;;;19.60;72.30;;;;;;5086330;28;19915;-79
2023/01/13 08:11:04;;;;;;;;;;;19.50;72.10;;;;;;5085426;28;20163;-79
2023/01/13 08:13:29;;;;;;;;;;;19.60;72.20;;;;;;5086457;28;20274;-79
2023/01/13 08:15:59;;;;;;;;;;;19.50;72.50;;;;;;5086189;28;19958;-79
2023/01/13 08:18:25;;;;;;;;;;;19.40;72.70;;;;;;5086022;28;20002;-79
2023/01/13 08:20:51;;;;;;;;;;;19.40;72.90;;;;;;5087911;28;19999;-79
2023/01/13 08:23:17;;;;;;;;;;;19.30;73.20;;;;;;5085552;28;20251;-79
2023/01/13 08:25:43;;;;;;;;;;;19.30;73.50;;;;;;5084901;28;19913;-79
2023/01/13 08:28:08;;;;;;;;;;;19.20;73.80;;;;;;5083609;28;20044;-79
2023/01/13 08:30:34;;;;;;;;;;;19.20;74.20;;;;;;5085505;28;19912;-79
2023/01/13 08:33:00;;;;;;;;;;;19.10;74.40;;;;;;5092673;28;19908;-79
2023/01/13 08:35:26;;;;;;;;;;;19.10;74.50;;;;;;5091784;28;20013;-79
2023/01/13 08:37:51;;;;;;;;;;;19.10;74.60;;;;;;5093301;28;20488;-79
2023/01/13 08:40:19;;;;;;;;;;;19.10;74.90;;;;;;5090892;28;19994;-79
2023/01/13 08:42:45;;;;;;;;;;;19.10;74.80;;;;;;5091949;28;20006;-79
2023/01/13 08:45:12;;;;;;;;;;;19.10;74.70;;;;;;5093310;28;20273;-78
2023/01/13 08:47:37;;;;;;;;;;;19.20;74.70;;;;;;5091202;28;19912;-79
2023/01/13 08:50:04;;;;;;;;;;;19.20;74.60;;;;;;5092974;28;19923;-79
2023/01/13 08:52:29;;;;;;;;;;;19.10;74.70;;;;;;5091686;28;19908;-79
2023/01/13 08:55:00;;;;;;;;;;;19.10;74.70;;;;;;5093140;28;19924;-79
2023/01/13 08:57:26;;;;;;;;;;;19.10;74.80;;;;;;5092681;28;19970;-79
2023/01/13 08:59:51;;;;;;;;;;;19.10;75.00;;;;;;5093024;28;19948;-79
2023/01/13 09:02:18;;;;;;;;;;;19.10;74.80;;;;;;5092390;28;19908;-79
2023/01/13 09:04:45;;;;;;;;;;;19.10;74.80;;;;;;5090581;28;19908;-79
2023/01/13 09:07:10;;;;;;;;;;;19.00;75.00;;;;;;5091626;28;19922;-79
2023/01/13 09:09:36;;;;;;;;;;;19.00;75.00;;;;;;5091229;28;19969;-79
2023/01/13 09:14:46;;;;;;;;;;;19.00;75.00;;;;;;5095663;28;19985;-79
2023/01/13 09:17:12;;;;;;;;;;;19.10;74.70;;;;;;5093964;28;19955;-79
2023/01/13 09:19:38;;;;;;;;;;;19.10;74.40;;;;;;5093920;28;19915;-79
2023/01/13 09:22:03;;;;;;;;;;;19.20;74.10;;;;;;5077040;28;19913;-79
2023/01/13 09:24:29;;;;;;;;;;;19.30;73.60;;;;;;5096213;28;19970;-79
2023/01/13 09:26:55;;;;;;;;;;;19.30;73.10;;;;;;5096673;28;19994;-79
2023/01/13 09:29:20;;;;;;;;;;;19.40;72.60;;;;;;5097741;28;19994;-79
2023/01/13 09:31:46;;;;;;;;;;;19.40;72.40;;;;;;5098051;28;20470;-79
2023/01/13 09:37:00;;;;;;;;;;;19.50;72.00;;;;;;5096735;28;19915;-78
2023/01/13 09:39:25;;;;;;;;;;;19.50;72.60;;;;;;5095502;28;19912;-79
2023/01/13 09:45:01;;;;;;;;;;;19.50;72.20;;;;;;5095007;28;20357;-79
2023/01/13 09:47:30;;;;;;;;;;;19.40;72.30;;;;;;5093298;28;19995;-79
2023/01/13 09:50:01;;;;;;;;;;;19.40;72.20;;;;;;5093163;28;19920;-79
2023/01/13 09:52:27;;;;;;;;;;;19.50;71.80;;;;;;5093213;28;19908;-78
2023/01/13 09:55:04;;;;;;;;;;;19.60;71.50;;;;;;5092064;28;20179;-78
2023/01/13 09:57:32;;;;;;;;;;;19.60;71.40;;;;;;5094842;28;19908;-78
2023/01/13 09:59:58;;;;;;;;;;;19.60;71.20;;;;;;5094902;28;19916;-78
2023/01/13 10:02:29;;;;;;;;;;;19.60;71.20;;;;;;5095249;28;19969;-79
2023/01/13 10:05:24;;;;;;;;;;;19.60;71.30;;;;;;5093962;28;20167;-79
2023/01/13 10:07:51;;;;;;;;;;;19.50;71.50;;;;;;5073209;28;20014;-80
2023/01/13 10:10:28;;;;;;;;;;;19.50;71.70;;;;;;5096487;28;19908;-80
2023/01/13 10:15:41;;;;;;;;;;;19.50;71.90;;;;;;5096107;28;19935;-79
2023/01/13 10:18:14;;;;;;;;;;;19.40;72.10;;;;;;5095287;28;20002;-78
2023/01/13 10:20:39;;;;;;;;;;;19.40;72.10;;;;;;5094831;28;19908;-79
2023/01/13 10:23:08;;;;;;;;;;;19.50;72.10;;;;;;5095484;28;19915;-78
2023/01/13 10:25:39;;;;;;;;;;;19.50;72.00;;;;;;5093251;28;19914;-78
2023/01/13 10:28:09;;;;;;;;;;;19.60;71.90;;;;;;5093652;28;19926;-79
2023/01/13 10:30:38;;;;;;;;;;;19.60;71.80;;;;;;5095105;28;19908;-79
2023/01/13 10:33:12;;;;;;;;;;;19.60;71.60;;;;;;5094657;28;19935;-79
2023/01/13 10:35:57;;;;;;;;;;;19.60;71.60;;;;;;5093674;28;20301;-79
2023/01/13 10:38:34;;;;;;;;;;;19.60;71.30;;;;;;5093496;28;19991;-79
2023/01/13 10:41:15;;;;;;;;;;;19.60;71.40;;;;;;5093651;28;20278;-79
2023/01/13 10:43:41;;;;;;;;;;;19.60;71.50;;;;;;5094238;28;19919;-79
2023/01/13 10:46:17;;;;;;;;;;;19.60;71.50;;;;;;5093666;28;19962;-79
2023/01/13 10:48:50;;;;;;;;;;;19.60;71.60;;;;;;5093267;28;20255;-79
2023/01/13 10:51:19;;;;;;;;;;;19.50;71.50;;;;;;5094687;28;19926;-78
2023/01/13 10:53:48;;;;;;;;;;;19.60;71.40;;;;;;5094371;28;20273;-78
2023/01/13 10:56:18;;;;;;;;;;;19.60;71.10;;;;;;5092829;28;19908;-79
2023/01/13 10:58:43;;;;;;;;;;;19.60;70.70;;;;;;5092717;28;20439;-78
2023/01/13 11:01:18;;;;;;;;;;;19.70;70.40;;;;;;5093094;28;19959;-79
2023/01/13 11:03:46;;;;;;;;;;;19.80;70.10;;;;;;5090480;28;19909;-79
2023/01/13 11:06:25;;;;;;;;;;;19.90;69.50;;;;;;5088269;28;19912;-79
2023/01/13 11:08:54;;;;;;;;;;;20.00;68.90;;;;;;5090135;28;19919;-78
2023/01/13 11:11:38;;;;;;;;;;;20.10;68.40;;;;;;5090450;28;20439;-78
2023/01/13 11:14:40;;;;;;;;;;;20.10;68.10;;;;;;5091741;28;20014;-79
2023/01/13 11:17:24;;;;;;;;;;;20.10;67.80;;;;;;5089748;28;20155;-78
2023/01/13 11:20:04;;;;;;;;;;;20.10;68.20;;;;;;5090957;28;19938;-79
2023/01/13 11:22:36;;;;;;;;;;;19.90;68.60;;;;;;5090813;28;20006;-78
2023/01/13 11:25:03;;;;;;;;;;;19.80;69.40;;;;;;5089369;28;19912;-79
2023/01/13 11:27:37;;;;;;;;;;;19.60;70.00;;;;;;5089840;28;20209;-79
2023/01/13 11:30:08;;;;;;;;;;;19.50;70.70;;;;;;5090090;28;19912;-78
2023/01/13 11:32:48;;;;;;;;;;;19.30;71.30;;;;;;5090863;28;19998;-78
2023/01/13 11:35:15;;;;;;;;;;;19.20;72.10;;;;;;5090376;28;19913;-78
2023/01/13 11:37:42;;;;;;;;;;;19.10;72.90;;;;;;5090648;28;19989;-78
2023/01/13 11:40:08;;;;;;;;;;;19.00;73.20;;;;;;5092993;28;19923;-78
2023/01/13 11:42:54;;;;;;;;;;;19.00;74.20;;;;;;5091733;28;20078;-78
2023/01/13 11:45:38;;;;;;;;;;;18.90;73.50;;;;;;5093032;28;19908;-78
2023/01/13 11:48:04;;;;;;;;;;;18.90;73.80;;;;;;5093755;28;19922;-79
2023/01/13 11:50:52;;;;;;;;;;;18.90;73.90;;;;;;5093599;28;19994;-78
2023/01/13 11:53:36;;;;;;;;;;;18.90;74.20;;;;;;5094232;28;19908;-78
2023/01/13 11:56:12;;;;;;;;;;;18.90;73.90;;;;;;5093824;28;20143;-78
2023/01/13 11:58:53;;;;;;;;;;;19.10;72.80;;;;;;5093076;28;19916;-78
2023/01/13 12:01:24;;;;;;;;;;;19.40;71.50;;;;;;5093086;28;19908;-79
2023/01/13 12:03:56;;;;;;;;;;;19.60;70.20;;;;;;5091773;28;19908;-78
2023/01/13 12:06:31;;;;;;;;;;;19.80;69.30;;;;;;5093392;28;19919;-78
2023/01/13 12:09:15;;;;;;;;;;;19.90;68.50;;;;;;5091840;28;19963;-79
2023/01/13 12:12:18;;;;;;;;;;;20.00;68.00;;;;;;5092645;28;19912;-78
2023/01/13 12:14:37;;;;;;;;;;;20.00;67.80;;;;;;5093301;28;19919;-79
2023/01/13 12:17:07;;;;;;;;;;;20.00;67.50;;;;;;5092666;28;19908;-78
2023/01/13 12:19:32;;;;;;;;;;;20.00;67.50;;;;;;5091234;28;20217;-79
2023/01/13 12:21:58;;;;;;;;;;;20.00;67.50;;;;;;5090833;28;20282;-78
2023/01/13 12:24:26;;;;;;;;;;;20.00;67.50;;;;;;5091362;28;19908;-79
2023/01/13 12:27:00;;;;;;;;;;;20.00;67.70;;;;;;5091686;28;20163;-79
2023/01/13 12:29:34;;;;;;;;;;;19.90;67.70;;;;;;5091290;28;19908;-78
2023/01/13 12:32:01;;;;;;;;;;;19.90;67.80;;;;;;5091112;28;19908;-78
2023/01/13 12:34:34;;;;;;;;;;;19.90;68.00;;;;;;5090839;28;19908;-79
2023/01/13 12:37:08;;;;;;;;;;;19.80;68.10;;;;;;5090208;28;19908;-79
2023/01/13 12:39:53;;;;;;;;;;;19.80;68.50;;;;;;5089551;28;19908;-78
2023/01/13 12:45:29;;;;;;;;;;;19.60;69.40;;;;;;5091104;28;20463;-79
2023/01/13 12:47:55;;;;;;;;;;;19.50;70.00;;;;;;5093132;28;19923;-78
2023/01/13 12:50:26;;;;;;;;;;;19.40;70.40;;;;;;5096095;28;19908;-78
2023/01/13 12:52:53;;;;;;;;;;;19.40;70.90;;;;;;5095954;28;19947;-79
2023/01/13 12:55:20;;;;;;;;;;;19.30;71.20;;;;;;5094071;28;20221;-79
2023/01/13 12:57:55;;;;;;;;;;;19.30;71.70;;;;;;5094576;28;20363;-79
2023/01/13 13:00:20;;;;;;;;;;;19.20;72.00;;;;;;5094459;28;20031;-79
2023/01/13 13:03:12;;;;;;;;;;;19.20;72.10;;;;;;5093923;28;20474;-78
2023/01/13 13:05:53;;;;;;;;;;;19.20;72.30;;;;;;5056783;28;19908;-78
2023/01/13 13:08:21;;;;;;;;;;;19.20;72.50;;;;;;5095427;28;19920;-78
2023/01/13 13:10:59;;;;;;;;;;;19.20;72.50;;;;;;5095606;28;20570;-77
2023/01/13 13:13:40;;;;;;;;;;;19.20;72.60;;;;;;5094061;28;19973;-78
2023/01/13 13:16:24;;;;;;;;;;;19.20;72.60;;;;;;5093844;28;19973;-78
2023/01/13 13:18:50;;;;;;;;;;;19.20;72.70;;;;;;5093529;28;19919;-78
2023/01/13 13:21:16;;;;;;;;;;;19.20;73.00;;;;;;5093677;28;19920;-78
2023/01/13 13:23:46;;;;;;;;;;;19.10;73.20;;;;;;5091975;28;19908;-78
2023/01/13 13:26:35;;;;;;;;;;;19.10;73.30;;;;;;5093148;28;19938;-79
2023/01/13 13:29:19;;;;;;;;;;;19.10;73.50;;;;;;5094852;28;19916;-78
2023/01/13 13:31:50;;;;;;;;;;;19.10;73.60;;;;;;5091691;28;19912;-78
2023/01/13 13:34:22;;;;;;;;;;;19.10;73.80;;;;;;5093280;28;19918;-79
2023/01/13 13:36:50;;;;;;;;;;;19.10;74.00;;;;;;5093209;28;20364;-79
2023/01/13 13:47:43;;;;;;;;;;;19.20;73.40;;;;;;5095442;28;19927;-78
2023/01/13 13:50:14;;;;;;;;;;;19.30;73.20;;;;;;5095271;28;19909;-78
2023/01/13 13:53:04;;;;;;;;;;;19.30;72.90;;;;;;5093939;28;20217;-78
2023/01/13 13:55:30;;;;;;;;;;;19.30;72.70;;;;;;5096531;28;19908;-79
2023/01/13 13:57:56;;;;;;;;;;;19.40;72.60;;;;;;5095663;28;19938;-78
2023/01/13 14:00:29;;;;;;;;;;;19.40;72.60;;;;;;5093577;28;20341;-79
2023/01/13 14:02:57;;;;;;;;;;;19.40;72.50;;;;;;5094093;28;19908;-79
2023/01/13 14:05:24;;;;;;;;;;;19.40;72.50;;;;;;5094724;28;19908;-78
2023/01/13 14:07:51;;;;;;;;;;;19.30;72.50;;;;;;5091795;28;19994;-78
2023/01/13 14:10:21;;;;;;;;;;;19.40;72.60;;;;;;5093182;28;19908;-78
2023/01/13 14:12:47;;;;;;;;;;;19.30;72.50;;;;;;5092992;28;19916;-78
2023/01/13 14:15:25;;;;;;;;;;;19.30;72.70;;;;;;5094682;28;19957;-78
2023/01/13 14:17:51;;;;;;;;;;;19.30;72.80;;;;;;5092896;28;19912;-78
2023/01/13 14:20:17;;;;;;;;;;;19.30;72.70;;;;;;5092332;28;19919;-78
2023/01/13 14:22:51;;;;;;;;;;;19.30;72.70;;;;;;5091450;28;20014;-78
2023/01/13 14:25:26;;;;;;;;;;;19.30;72.60;;;;;;5091390;28;20086;-79
2023/01/13 14:27:52;;;;;;;;;;;19.30;72.60;;;;;;5092115;28;19916;-78
2023/01/13 14:30:18;;;;;;;;;;;19.40;72.50;;;;;;5092257;28;19912;-79
2023/01/13 14:32:44;;;;;;;;;;;19.40;72.20;;;;;;5093171;28;19961;-78
2023/01/13 14:35:14;;;;;;;;;;;19.50;72.10;;;;;;5093575;28;20263;-78
2023/01/13 14:37:41;;;;;;;;;;;19.50;72.00;;;;;;5093765;28;19908;-78
2023/01/13 14:40:26;;;;;;;;;;;19.50;71.90;;;;;;5093943;28;19962;-79
2023/01/13 14:42:59;;;;;;;;;;;19.50;71.80;;;;;;5075403;28;19973;-79
2023/01/13 14:45:25;;;;;;;;;;;19.40;72.00;;;;;;5094766;28;19909;-79
2023/01/13 14:47:54;;;;;;;;;;;19.40;72.10;;;;;;5092260;28;20015;-78
2023/01/13 14:50:26;;;;;;;;;;;19.40;72.20;;;;;;5091431;28;19908;-78
2023/01/13 14:52:56;;;;;;;;;;;19.40;72.20;;;;;;5093630;28;19919;-78
2023/01/13 14:55:30;;;;;;;;;;;19.40;72.30;;;;;;5091682;28;19991;-79
2023/01/13 14:58:15;;;;;;;;;;;19.40;72.40;;;;;;5094027;28;19912;-79
2023/01/13 15:00:40;;;;;;;;;;;19.40;72.50;;;;;;5094040;28;19923;-78
2023/01/13 15:03:06;;;;;;;;;;;19.40;72.60;;;;;;5093947;28;19912;-79
2023/01/13 15:05:33;;;;;;;;;;;19.30;72.90;;;;;;5094291;28;19918;-78
2023/01/13 15:08:09;;;;;;;;;;;19.30;73.10;;;;;;5091973;28;20153;-79
2023/01/13 15:10:46;;;;;;;;;;;19.30;73.30;;;;;;5080830;28;19920;-79
2023/01/13 15:13:34;;;;;;;;;;;19.30;73.30;;;;;;5072418;28;19909;-79
2023/01/13 15:16:12;;;;;;;;;;;19.30;73.20;;;;;;5069863;28;19915;-79
2023/01/13 15:18:40;;;;;;;;;;;19.30;73.10;;;;;;5071320;28;19920;-79
2023/01/13 15:21:06;;;;;;;;;;;19.40;73.10;;;;;;5073022;28;19908;-79
2023/01/13 15:23:31;;;;;;;;;;;19.40;73.00;;;;;;5072315;28;20009;-78
2023/01/13 15:25:58;;;;;;;;;;;19.40;72.90;;;;;;5071554;28;19959;-79
2023/01/13 15:28:25;;;;;;;;;;;19.40;72.80;;;;;;5071288;28;20117;-80
2023/01/13 15:30:52;;;;;;;;;;;19.40;72.90;;;;;;5073271;28;19909;-78